Mc Donald, New Mexico
Current Conditions -  °F | °C
As of 3:55 AM on Wednesday 22 Oct 2014 (Local Time) from KHOB Reporting Station
Broken Clouds Broken Clouds  
Wind Chill: 59°   Ceiling: 2900
Heat Index: 59°   Visibility: 10mi
Dew Point: 59°   Wind: 10mph
Humidity: 100%   Direction: 150°SSE
Pressure: 30.09"   Gusts: NA
Location:  33.1415°N, 103.313°W
Report Text: KHOB 220955Z AUTO 15009KT 10SM FEW010 SCT016 BKN029 15/15 A3009 RMK AO2
Loading
Personal Weather Stations






























Interactive Weather Map
Tropical Storm Tracking
New forecast layout! Learn more

10-Day Weather Forecast

Advertisements
Track Severe Weather on mobile